MET335 - Los Angeles to Boston

Airbus A321-232
657MT - Sharklet Equipped
4 hrs 50 mins
2267 nm
Scheduled - Daily

Bid/PiRep Status

Bid was submitted on Jan 10 2017.

No PiRep on file for this bid.

Departure

Departing from
Los Angeles (LAX)
Departure gate
Scheduled Departure
GMT 0630
Local 2230
METAR KLAX 220553Z 29008KT 10SM OVC007 14/14 A3023 RMK AO2 SLP236 T01440139 10167 20144 56002
TAF KLAX 220535Z 2206/2312 VRB03KT P6SM BKN009 BKN080 FM220800 31009KT P6SM FEW010 BKN080 FM221300 VRB03KT 6SM BR OVC015 FM221900 27010KT P6SM SCT025 BKN050 FM222200 27012G22KT P6SM FEW025 SCT050 FM230100 35015KT P6SM SCT050
  • No charts available

Arrival

Arriving at
Boston (BOS)
Arrival gate
Scheduled Arrival
GMT 1120
Local 0620
METAR KBOS 220554Z 21010KT 10SM FEW090 OVC130 03/M01 A3009 RMK AO2 SLP189 T00331006 10044 20028 57024
TAF KBOS 220522Z 2206/2312 21007KT P6SM BKN120 FM221500 19004KT P6SM SCT250 FM230300 24004KT P6SM SCT040

Route Map

Planning Resources

POM7,DAG,J9,MLF,J107,OCS,J94,DBQ,BAE,ALB,GDM3
POM7.DAG J100 EKR CYS J148 MCW J16 ALB.GDM3
POM7.DAG J9 LAS J146 GLD J192 IOW J146 GIJ J554 JHW J82 ALB GDM3
POM7 DAG J146 DVC KD57Y KP69E PMM J70 JHW J82 ALB GDM3
DAG BLD J60 BCE RIL SNY J114 ONL J148 GOOLD J148 MCW J16 ALB
Route:
OFP Layout:
Units:
Detailed Navlog:
ETOPS Planning:
Plan Stepclimbs:
Runway Analysis:
Include NOTAMS:
FIR NOTAMS:
Flight Maps:

Return Flights

MET332
Airbus A321-232
1200 GMT
MET336
Airbus A321-232
0010 GMT
MET337
Airbus A321-232
2040 GMT
MET602
Boeing 787-8
2155 GMT

Popularity

Hub Current Bids PiReps this month Total PiReps
KMCI 0 0 2
KLAX 0 0 8
KBOS 0 0 1